Terminal Aerodrome Forecast
Issued by NWS Spokane, WA

Home | Current Version | Previous Version | Text Only | Print | Product List | Glossary On
Versions: 1 2 3 4 5 6 7 8 9 10 11 12 13 14 15 16 17 18 19 20 21 22 23 24 25 26
000
FTUS46 KOTX 231734
TAFLWS
TAF
KLWS 231734Z 2318/2418 16004KT P6SM VCSH FEW070 OVC090
     FM232000 22010KT P6SM -SHRA BKN050 OVC100
     FM240200 23013G20KT P6SM BKN040
     FM240500 25010KT P6SM SCT070
     FM241200 VRB03KT P6SM BKN250=

USA.gov is the U.S. government's official web portal to all federal, state and local government web resources and services.